RYR5LV LIME-LICJ
Flight info
| Callsign | RYR5LV |
|---|---|
| Flight time | N/A |
| Altitude | 37000 |
| Route | LOGDI DCT EKDIR DCT LOMED DCT TORLI DCT GIANO |
| Aircraft | B738/M-SDE2E3FGHIRWXY/LB1 |
Departure
| Time | 2026-05-01 15:14 |
|---|---|
| Airport | Il Caravaggio International Airport (LIME) |
Arrival
| Time | N/A |
|---|---|
| Airport | Falcone–Borsellino Airport (LICJ) |
| Time | Latitude | Longitude | Altitude | Speed | Heading |
|---|---|---|---|---|---|
| 2026-05-01 14:56 | 45.66730 | 9.69556 | 786 ft | 0 kts | 195° |
| 2026-05-01 15:03 | 45.66732 | 9.69557 | 786 ft | 2 kts | 194° |
| 2026-05-01 15:03 | 45.66748 | 9.69562 | 786 ft | 2 kts | 195° |
| 2026-05-01 15:03 | 45.66764 | 9.69568 | 786 ft | 2 kts | 195° |
| 2026-05-01 15:03 | 45.66780 | 9.69574 | 786 ft | 2 kts | 194° |
| 2026-05-01 15:04 | 45.66796 | 9.69580 | 786 ft | 2 kts | 197° |
| 2026-05-01 15:04 | 45.66812 | 9.69586 | 786 ft | 2 kts | 169° |
| 2026-05-01 15:04 | 45.66822 | 9.69577 | 786 ft | 0 kts | 109° |
| 2026-05-01 15:07 | 45.66820 | 9.69583 | 786 ft | 2 kts | 108° |
| 2026-05-01 15:07 | 45.66813 | 9.69615 | 786 ft | 5 kts | 108° |
| 2026-05-01 15:07 | 45.66801 | 9.69670 | 786 ft | 7 kts | 105° |
| 2026-05-01 15:07 | 45.66786 | 9.69762 | 786 ft | 14 kts | 101° |
| 2026-05-01 15:08 | 45.66754 | 9.69940 | 786 ft | 21 kts | 105° |
| 2026-05-01 15:08 | 45.66715 | 9.70153 | 786 ft | 24 kts | 104° |
| 2026-05-01 15:08 | 45.66672 | 9.70385 | 786 ft | 23 kts | 105° |
| 2026-05-01 15:08 | 45.66631 | 9.70605 | 786 ft | 23 kts | 105° |
| 2026-05-01 15:09 | 45.66592 | 9.70818 | 786 ft | 22 kts | 105° |
| 2026-05-01 15:09 | 45.66554 | 9.71023 | 786 ft | 21 kts | 104° |
| 2026-05-01 15:09 | 45.66504 | 9.71219 | 786 ft | 21 kts | 110° |
| 2026-05-01 15:09 | 45.66466 | 9.71414 | 786 ft | 20 kts | 105° |
| 2026-05-01 15:10 | 45.66440 | 9.71605 | 786 ft | 19 kts | 86° |
| 2026-05-01 15:10 | 45.66454 | 9.71970 | 786 ft | 18 kts | 105° |
| 2026-05-01 15:10 | 45.66421 | 9.72141 | 786 ft | 18 kts | 106° |
| 2026-05-01 15:11 | 45.66390 | 9.72306 | 786 ft | 17 kts | 104° |
| 2026-05-01 15:11 | 45.66378 | 9.72372 | 786 ft | 0 kts | 104° |
| 2026-05-01 15:12 | 45.66376 | 9.72385 | 786 ft | 6 kts | 104° |
| 2026-05-01 15:12 | 45.66457 | 9.72486 | 786 ft | 16 kts | 273° |
| 2026-05-01 15:12 | 45.66482 | 9.72333 | 786 ft | 19 kts | 284° |
| 2026-05-01 15:13 | 45.66991 | 9.69527 | 824 ft | 181 kts | 282° |
| 2026-05-01 15:14 | 45.67580 | 9.66227 | 2682 ft | 164 kts | 266° |
| 2026-05-01 15:14 | 45.67166 | 9.64585 | 2891 ft | 199 kts | 230° |
| 2026-05-01 15:14 | 45.65040 | 9.62371 | 4685 ft | 175 kts | 216° |
| 2026-05-01 15:15 | 45.62897 | 9.60485 | 5887 ft | 186 kts | 210° |
| 2026-05-01 15:15 | 45.60900 | 9.58142 | 5858 ft | 185 kts | 223° |
| 2026-05-01 15:16 | 45.59029 | 9.55735 | 5852 ft | 180 kts | 227° |
| 2026-05-01 15:16 | 45.57219 | 9.52837 | 5952 ft | 222 kts | 230° |
| 2026-05-01 15:17 | 45.54475 | 9.51198 | 5868 ft | 230 kts | 161° |
| 2026-05-01 15:18 | 45.49956 | 9.54163 | 7258 ft | 244 kts | 154° |
| 2026-05-01 15:18 | 45.48420 | 9.55145 | 7953 ft | 247 kts | 155° |
| 2026-05-01 15:19 | 45.43587 | 9.58132 | 10065 ft | 258 kts | 155° |
| 2026-05-01 15:19 | 45.40243 | 9.60150 | 11396 ft | 263 kts | 155° |
| 2026-05-01 15:19 | 45.38546 | 9.61170 | 12080 ft | 266 kts | 154° |
| 2026-05-01 15:20 | 45.35146 | 9.63505 | 13129 ft | 286 kts | 144° |
| 2026-05-01 15:20 | 45.33444 | 9.65091 | 13389 ft | 306 kts | 143° |
| 2026-05-01 15:20 | 45.31650 | 9.66816 | 13959 ft | 316 kts | 143° |
| 2026-05-01 15:21 | 45.29815 | 9.68569 | 14642 ft | 319 kts | 143° |
| 2026-05-01 15:21 | 45.27959 | 9.70323 | 15412 ft | 321 kts | 143° |
| 2026-05-01 15:21 | 45.26082 | 9.72081 | 16114 ft | 325 kts | 143° |
| 2026-05-01 15:21 | 45.24177 | 9.73855 | 16809 ft | 330 kts | 143° |
| 2026-05-01 15:22 | 45.20285 | 9.77454 | 18184 ft | 338 kts | 143° |
| 2026-05-01 15:22 | 45.18328 | 9.79257 | 18824 ft | 342 kts | 143° |
| 2026-05-01 15:22 | 45.16322 | 9.81101 | 19411 ft | 346 kts | 143° |
| 2026-05-01 15:23 | 45.14293 | 9.82965 | 19997 ft | 350 kts | 143° |
| 2026-05-01 15:23 | 45.12239 | 9.84850 | 20593 ft | 353 kts | 143° |
| 2026-05-01 15:23 | 45.10169 | 9.86749 | 21186 ft | 357 kts | 143° |
| 2026-05-01 15:23 | 45.08067 | 9.88676 | 21657 ft | 365 kts | 143° |
| 2026-05-01 15:24 | 45.05913 | 9.90650 | 22081 ft | 373 kts | 143° |
| 2026-05-01 15:24 | 45.03726 | 9.92650 | 22638 ft | 376 kts | 143° |
| 2026-05-01 15:24 | 45.01517 | 9.94667 | 23230 ft | 379 kts | 143° |
| 2026-05-01 15:24 | 44.99282 | 9.96684 | 23769 ft | 384 kts | 145° |
| 2026-05-01 15:25 | 44.97008 | 9.98599 | 24241 ft | 388 kts | 146° |
| 2026-05-01 15:25 | 44.94659 | 10.00512 | 24724 ft | 391 kts | 147° |
| 2026-05-01 15:25 | 44.92292 | 10.02426 | 25203 ft | 393 kts | 147° |
| 2026-05-01 15:25 | 44.89916 | 10.04356 | 25689 ft | 396 kts | 146° |
| 2026-05-01 15:26 | 44.87525 | 10.06307 | 26149 ft | 398 kts | 146° |
| 2026-05-01 15:26 | 44.85120 | 10.08276 | 26605 ft | 401 kts | 146° |
| 2026-05-01 15:26 | 44.82701 | 10.10261 | 27058 ft | 404 kts | 146° |
| 2026-05-01 15:26 | 44.80298 | 10.12233 | 27493 ft | 406 kts | 146° |
| 2026-05-01 15:27 | 44.77848 | 10.14242 | 27929 ft | 409 kts | 146° |
| 2026-05-01 15:27 | 44.75383 | 10.16261 | 28354 ft | 412 kts | 146° |
| 2026-05-01 15:27 | 44.72897 | 10.18294 | 28772 ft | 415 kts | 146° |
| 2026-05-01 15:28 | 44.68026 | 10.22723 | 29515 ft | 419 kts | 140° |
| 2026-05-01 15:28 | 44.65669 | 10.25156 | 29943 ft | 421 kts | 139° |
| 2026-05-01 15:28 | 44.63322 | 10.27613 | 30448 ft | 421 kts | 139° |
| 2026-05-01 15:29 | 44.58631 | 10.32487 | 31078 ft | 426 kts | 140° |
| 2026-05-01 15:29 | 44.56228 | 10.34954 | 31337 ft | 430 kts | 140° |
| 2026-05-01 15:29 | 44.51373 | 10.39896 | 31978 ft | 433 kts | 140° |
| 2026-05-01 15:30 | 44.46462 | 10.44870 | 32479 ft | 439 kts | 141° |
| 2026-05-01 15:31 | 44.35935 | 10.53741 | 33526 ft | 455 kts | 162° |
| 2026-05-01 15:31 | 44.29790 | 10.56025 | 34029 ft | 459 kts | 163° |
| 2026-05-01 15:32 | 44.23571 | 10.58290 | 34484 ft | 464 kts | 162° |
| 2026-05-01 15:32 | 44.17358 | 10.60601 | 34869 ft | 467 kts | 162° |
| 2026-05-01 15:33 | 44.07884 | 10.64175 | 35342 ft | 475 kts | 162° |
| 2026-05-01 15:34 | 43.98264 | 10.67802 | 35872 ft | 479 kts | 163° |